createdAt,value
2023-05-07T00:00:10.234Z,0.40
2023-05-07T00:02:38.537Z,0.35
2023-05-07T00:05:06.277Z,0.50
2023-05-07T00:07:34.419Z,1.08
2023-05-07T00:10:01.646Z,0.30
2023-05-07T00:12:28.941Z,0.40
2023-05-07T00:14:56.179Z,0.40
2023-05-07T00:17:23.445Z,0.38
2023-05-07T00:19:50.714Z,0.40
2023-05-07T00:22:18.424Z,0.38
2023-05-07T00:24:45.819Z,0.50
2023-05-07T00:27:13.053Z,0.30
2023-05-07T00:29:40.588Z,0.40
2023-05-07T00:32:07.957Z,0.40
2023-05-07T00:34:35.252Z,0.43
2023-05-07T00:37:05.276Z,0.68
2023-05-07T00:39:33.896Z,0.50
2023-05-07T00:42:01.676Z,0.40
2023-05-07T00:44:29.483Z,0.65
2023-05-07T00:46:57.431Z,0.57
2023-05-07T00:49:28.772Z,0.50
2023-05-07T00:51:56.479Z,0.70
2023-05-07T00:54:23.770Z,0.50
2023-05-07T00:56:51.004Z,0.70
2023-05-07T00:59:18.281Z,0.65
2023-05-07T01:01:45.546Z,0.50
2023-05-07T01:04:12.805Z,0.50
2023-05-07T01:06:40.680Z,1.17
2023-05-07T01:09:08.356Z,0.50
2023-05-07T01:11:35.549Z,0.30
2023-05-07T01:14:03.472Z,0.50
2023-05-07T01:16:30.933Z,1.35
2023-05-07T01:18:58.181Z,0.40
2023-05-07T01:21:27.662Z,0.50
2023-05-07T01:23:56.445Z,0.47
2023-05-07T01:26:24.779Z,0.40
2023-05-07T01:28:52.069Z,0.55
2023-05-07T01:31:19.621Z,0.47
2023-05-07T01:33:47.774Z,0.50
2023-05-07T01:36:15.416Z,0.60
2023-05-07T01:38:42.945Z,0.50
2023-05-07T01:41:10.141Z,0.50
2023-05-07T01:43:37.541Z,0.52
2023-05-07T01:46:05.456Z,0.60
2023-05-07T01:48:32.865Z,0.45
2023-05-07T01:51:00.131Z,0.52
2023-05-07T01:53:29.213Z,0.40
2023-05-07T01:55:56.487Z,1.33
2023-05-07T01:58:23.745Z,0.50
2023-05-07T02:00:50.949Z,0.50
2023-05-07T02:03:18.388Z,1.48
2023-05-07T02:05:45.722Z,0.73
2023-05-07T02:08:12.977Z,0.73
2023-05-07T02:10:40.390Z,0.70
2023-05-07T02:13:07.747Z,1.00
2023-05-07T02:15:35.021Z,0.60
2023-05-07T02:18:05.260Z,0.80
2023-05-07T02:20:32.650Z,0.50
2023-05-07T02:22:59.934Z,0.52
2023-05-07T02:25:27.141Z,0.60
2023-05-07T02:27:54.387Z,0.60
2023-05-07T02:30:22.442Z,0.40
2023-05-07T02:32:49.931Z,0.30
2023-05-07T02:35:17.337Z,0.40
2023-05-07T02:37:44.738Z,0.30
2023-05-07T02:40:13.045Z,0.60
2023-05-07T02:42:40.496Z,0.63
2023-05-07T02:45:08.020Z,0.50
2023-05-07T02:47:35.362Z,0.57
2023-05-07T02:50:04.741Z,0.30
2023-05-07T02:52:32.009Z,0.50
2023-05-07T02:54:59.215Z,0.40
2023-05-07T02:57:26.435Z,0.50
2023-05-07T02:59:53.699Z,0.50
2023-05-07T03:02:21.220Z,0.32
2023-05-07T03:04:48.462Z,0.40
2023-05-07T03:07:15.668Z,0.30
2023-05-07T03:09:42.868Z,0.32
2023-05-07T03:12:10.115Z,0.40
2023-05-07T03:14:37.362Z,1.35
2023-05-07T03:17:04.621Z,0.40
2023-05-07T03:19:31.925Z,0.30
2023-05-07T03:21:59.264Z,0.30
2023-05-07T03:24:26.455Z,0.35
2023-05-07T03:26:53.824Z,0.50
2023-05-07T03:29:21.077Z,0.40
2023-05-07T03:31:48.364Z,0.40
2023-05-07T03:34:17.978Z,0.30
2023-05-07T03:36:45.306Z,0.30
2023-05-07T03:39:12.532Z,0.43
2023-05-07T03:41:39.861Z,0.55
2023-05-07T03:44:07.061Z,0.65
2023-05-07T03:46:34.768Z,0.55
2023-05-07T03:49:02.094Z,0.40
2023-05-07T03:51:29.281Z,0.40
2023-05-07T03:53:58.170Z,0.73
2023-05-07T03:56:27.754Z,0.60
2023-05-07T03:58:55.439Z,0.73
2023-05-07T04:01:22.713Z,0.57
2023-05-07T04:03:50.016Z,0.40
2023-05-07T04:06:20.393Z,0.50
2023-05-07T04:08:47.592Z,0.50
2023-05-07T04:11:14.921Z,0.50
2023-05-07T04:13:42.146Z,0.40
2023-05-07T04:16:09.429Z,0.40
2023-05-07T04:18:36.749Z,0.40
2023-05-07T04:21:04.060Z,0.40
2023-05-07T04:23:31.336Z,0.43
2023-05-07T04:25:58.575Z,0.30
2023-05-07T04:28:26.785Z,0.40
2023-05-07T04:30:54.029Z,0.30
2023-05-07T04:33:21.287Z,0.65
2023-05-07T04:35:48.506Z,0.60
2023-05-07T04:38:15.853Z,0.88
2023-05-07T04:40:43.367Z,0.30
2023-05-07T04:43:10.665Z,0.50
2023-05-07T04:45:38.809Z,0.28
2023-05-07T04:48:06.261Z,0.50
2023-05-07T04:50:33.563Z,0.55
2023-05-07T04:53:00.785Z,0.50
2023-05-07T04:55:28.162Z,0.28
2023-05-07T04:57:55.450Z,0.30
2023-05-07T05:00:22.795Z,0.40
2023-05-07T05:02:50.487Z,0.55
2023-05-07T05:05:17.816Z,0.52
2023-05-07T05:07:45.064Z,0.50
2023-05-07T05:10:12.604Z,0.73
2023-05-07T05:12:40.048Z,0.75
2023-05-07T05:15:07.726Z,0.50
2023-05-07T05:17:36.087Z,0.40
2023-05-07T05:20:03.470Z,0.50
2023-05-07T05:22:32.165Z,0.40
2023-05-07T05:24:59.496Z,0.60
2023-05-07T05:27:26.723Z,0.40
2023-05-07T05:29:54.140Z,0.45
2023-05-07T05:32:21.365Z,0.50
2023-05-07T05:34:48.631Z,0.60
2023-05-07T05:37:16.064Z,0.38
2023-05-07T05:39:43.611Z,0.80
2023-05-07T05:42:10.794Z,0.55
2023-05-07T05:44:38.126Z,0.40
2023-05-07T05:47:05.562Z,0.40
2023-05-07T05:49:32.814Z,0.40
2023-05-07T05:52:00.082Z,0.30
2023-05-07T05:54:27.357Z,0.30
2023-05-07T05:56:54.717Z,0.35
2023-05-07T05:59:21.964Z,0.40
2023-05-07T06:01:49.258Z,0.30
2023-05-07T06:04:16.589Z,0.43
2023-05-07T06:06:43.843Z,0.30
2023-05-07T06:09:11.101Z,0.45
2023-05-07T06:11:38.431Z,0.32
2023-05-07T06:14:05.736Z,0.30
2023-05-07T06:16:32.974Z,0.40
2023-05-07T06:19:00.212Z,0.30
2023-05-07T06:21:27.415Z,0.45
2023-05-07T06:23:55.950Z,0.40
2023-05-07T06:26:23.300Z,0.40
2023-05-07T06:28:50.503Z,0.30
2023-05-07T06:31:19.145Z,0.30
2023-05-07T06:33:46.542Z,0.40
2023-05-07T06:36:13.921Z,1.17
2023-05-07T06:38:41.196Z,0.73
2023-05-07T06:41:08.795Z,0.50
2023-05-07T06:43:36.027Z,0.50
2023-05-07T06:46:03.346Z,0.52
2023-05-07T06:48:30.649Z,0.75
2023-05-07T06:50:58.687Z,0.63
2023-05-07T06:53:26.942Z,0.68
2023-05-07T06:55:54.217Z,1.05
2023-05-07T06:58:21.427Z,0.57
2023-05-07T07:00:48.661Z,0.70
2023-05-07T07:03:16.337Z,0.60
2023-05-07T07:05:43.602Z,0.70
2023-05-07T07:08:11.837Z,0.35
2023-05-07T07:10:39.154Z,1.40
2023-05-07T07:13:06.424Z,0.55
2023-05-07T07:15:33.760Z,0.73
2023-05-07T07:18:01.211Z,0.60
2023-05-07T07:20:28.521Z,0.75
2023-05-07T07:22:55.946Z,0.45
2023-05-07T07:25:23.149Z,0.75
2023-05-07T07:27:50.998Z,0.75
2023-05-07T07:30:18.261Z,0.63
2023-05-07T07:32:45.590Z,0.65
2023-05-07T07:35:12.829Z,0.85
2023-05-07T07:37:40.172Z,0.55
2023-05-07T07:40:07.829Z,0.60
2023-05-07T07:42:35.089Z,0.50
2023-05-07T07:45:02.384Z,0.70
2023-05-07T07:47:29.842Z,0.60
2023-05-07T07:49:57.088Z,0.70
2023-05-07T07:52:24.374Z,0.60
2023-05-07T07:54:51.564Z,1.63
2023-05-07T07:57:18.765Z,1.05
2023-05-07T07:59:46.512Z,1.33
2023-05-07T08:02:13.787Z,2.55
2023-05-07T08:04:41.619Z,1.67
2023-05-07T08:07:08.939Z,1.27
2023-05-07T08:09:36.286Z,1.20
2023-05-07T08:12:03.543Z,1.35
2023-05-07T08:14:30.900Z,1.33
2023-05-07T08:16:58.282Z,2.47
2023-05-07T08:19:25.711Z,1.42
2023-05-07T08:21:52.942Z,1.50
2023-05-07T08:24:20.179Z,1.30
2023-05-07T08:26:47.612Z,1.30
2023-05-07T08:29:15.214Z,1.30
2023-05-07T08:31:42.564Z,1.05
2023-05-07T08:34:10.208Z,1.23
2023-05-07T08:36:37.739Z,1.52
2023-05-07T08:39:05.047Z,1.27
2023-05-07T08:41:32.309Z,1.20
2023-05-07T08:44:03.659Z,1.75
2023-05-07T08:46:32.857Z,1.25
2023-05-07T08:49:01.668Z,1.23
2023-05-07T08:51:28.949Z,0.98
2023-05-07T08:53:56.154Z,2.67
2023-05-07T08:56:23.458Z,2.10
2023-05-07T08:58:50.793Z,1.77
2023-05-07T09:01:18.532Z,1.63
2023-05-07T09:03:47.252Z,1.55
2023-05-07T09:06:14.577Z,1.35
2023-05-07T09:08:41.823Z,1.38
2023-05-07T09:11:09.041Z,1.38
2023-05-07T09:13:36.334Z,2.53
2023-05-07T09:16:13.237Z,1.48
2023-05-07T09:18:44.105Z,1.92
2023-05-07T09:21:11.941Z,2.08
2023-05-07T09:23:39.761Z,1.23
2023-05-07T09:26:12.509Z,1.17
2023-05-07T09:28:41.426Z,1.45
2023-05-07T09:31:09.178Z,1.63
2023-05-07T09:33:36.863Z,1.40
2023-05-07T09:36:04.879Z,1.60
2023-05-07T09:38:32.193Z,1.60
2023-05-07T09:41:04.448Z,1.38
2023-05-07T09:43:38.452Z,1.30
2023-05-07T09:46:08.598Z,1.67
2023-05-07T09:48:39.816Z,1.52
2023-05-07T09:51:19.008Z,1.83
2023-05-07T09:53:47.373Z,1.95
2023-05-07T09:56:16.502Z,1.75
2023-05-07T09:58:45.705Z,1.80
2023-05-07T10:01:14.037Z,1.65
2023-05-07T10:03:45.636Z,1.52
2023-05-07T10:06:13.844Z,1.70
2023-05-07T10:08:41.242Z,1.58
2023-05-07T10:11:08.564Z,2.17
2023-05-07T10:13:39.164Z,1.00
2023-05-07T10:16:06.695Z,1.40
2023-05-07T10:18:34.384Z,1.52
2023-05-07T10:21:09.208Z,1.17
2023-05-07T10:23:36.581Z,3.05
2023-05-07T10:26:05.068Z,1.40
2023-05-07T10:28:35.254Z,1.70
2023-05-07T10:31:09.792Z,1.95
2023-05-07T10:33:39.480Z,2.10
2023-05-07T10:36:07.784Z,1.60
2023-05-07T10:38:35.094Z,2.15
2023-05-07T10:41:02.581Z,1.48
2023-05-07T10:43:40.710Z,1.48
2023-05-07T10:46:14.923Z,1.90
2023-05-07T10:49:00.904Z,1.45
2023-05-07T10:51:28.949Z,1.10
2023-05-07T10:54:11.328Z,1.70
2023-05-07T10:56:39.331Z,1.92
2023-05-07T10:59:25.556Z,2.83
2023-05-07T11:01:55.092Z,1.70
2023-05-07T11:04:27.443Z,1.70
2023-05-07T11:07:10.430Z,1.95
2023-05-07T11:09:57.054Z,2.03
2023-05-07T11:12:39.941Z,2.05
2023-05-07T11:15:11.326Z,2.63
2023-05-07T11:17:57.884Z,2.00
2023-05-07T11:20:44.658Z,2.22
2023-05-07T11:23:31.570Z,1.45
2023-05-07T11:26:04.642Z,1.30
2023-05-07T11:28:32.706Z,1.38
2023-05-07T11:30:59.926Z,1.50
2023-05-07T11:33:27.796Z,1.92
2023-05-07T11:35:55.450Z,2.30
2023-05-07T11:38:22.769Z,1.80
2023-05-07T11:40:53.565Z,3.17
2023-05-07T11:43:20.893Z,1.48
2023-05-07T11:45:52.293Z,1.42
2023-05-07T11:48:19.533Z,1.60
2023-05-07T11:51:01.629Z,1.50
2023-05-07T11:53:29.506Z,1.52
2023-05-07T11:55:59.978Z,2.53
2023-05-07T11:58:27.399Z,3.72
2023-05-07T12:00:55.239Z,3.17
2023-05-07T12:03:23.140Z,1.85
2023-05-07T12:05:50.469Z,1.67
2023-05-07T12:08:17.673Z,1.90
2023-05-07T12:10:45.838Z,1.77
2023-05-07T12:13:26.629Z,1.80
2023-05-07T12:15:56.718Z,1.20
2023-05-07T12:18:24.708Z,2.22
2023-05-07T12:20:52.464Z,1.10
2023-05-07T12:23:19.976Z,1.40
2023-05-07T12:25:49.914Z,1.20
2023-05-07T12:28:17.755Z,1.20
2023-05-07T12:30:45.964Z,1.00
2023-05-07T12:33:13.529Z,1.50
2023-05-07T12:35:44.559Z,1.73
2023-05-07T12:38:16.161Z,1.20
2023-05-07T12:40:48.260Z,1.08
2023-05-07T12:43:21.369Z,1.20
2023-05-07T12:45:49.708Z,1.30
2023-05-07T12:48:16.973Z,1.30
2023-05-07T12:50:44.439Z,1.35
2023-05-07T12:53:13.249Z,0.80
2023-05-07T12:55:47.587Z,1.13
2023-05-07T12:58:18.587Z,1.40
2023-05-07T13:00:46.395Z,2.63
2023-05-07T13:03:13.842Z,1.98
2023-05-07T13:05:41.265Z,1.55
2023-05-07T13:08:10.673Z,1.20
2023-05-07T13:10:37.922Z,1.60
2023-05-07T13:13:05.513Z,0.82
2023-05-07T13:15:32.777Z,1.17
2023-05-07T13:18:00.043Z,1.20
2023-05-07T13:20:27.731Z,1.50
2023-05-07T13:22:55.087Z,1.33
2023-05-07T13:25:22.282Z,1.30
2023-05-07T13:27:56.450Z,1.00
2023-05-07T13:30:30.307Z,1.55
2023-05-07T13:32:57.953Z,1.55
2023-05-07T13:35:25.320Z,1.45
2023-05-07T13:37:53.161Z,0.90
2023-05-07T13:40:20.513Z,1.80
2023-05-07T13:42:47.732Z,1.08
2023-05-07T13:45:15.171Z,1.20
2023-05-07T13:47:43.186Z,2.33
2023-05-07T13:50:12.577Z,1.15
2023-05-07T13:52:41.438Z,0.90
2023-05-07T13:55:09.014Z,0.70
2023-05-07T13:57:36.256Z,1.58
2023-05-07T14:00:03.943Z,1.13
2023-05-07T14:02:31.333Z,0.90
2023-05-07T14:04:58.637Z,0.80
2023-05-07T14:07:26.085Z,0.80
2023-05-07T14:09:53.328Z,1.48
2023-05-07T14:12:20.569Z,0.85
2023-05-07T14:14:47.834Z,1.50
2023-05-07T14:17:15.242Z,1.25
2023-05-07T14:19:42.497Z,1.42
2023-05-07T14:22:09.715Z,0.80
2023-05-07T14:24:38.738Z,1.05
2023-05-07T14:27:06.766Z,1.08
2023-05-07T14:29:34.169Z,0.70
2023-05-07T14:32:01.614Z,0.70
2023-05-07T14:34:28.833Z,0.85
2023-05-07T14:36:56.601Z,0.85
2023-05-07T14:39:23.870Z,0.60
2023-05-07T14:41:51.174Z,0.50
2023-05-07T14:44:18.359Z,0.70
2023-05-07T14:46:45.683Z,0.68
2023-05-07T14:49:18.003Z,1.02
2023-05-07T14:51:46.425Z,1.10
2023-05-07T14:54:14.599Z,0.98
2023-05-07T14:56:42.403Z,0.60
2023-05-07T14:59:09.916Z,0.60
2023-05-07T15:01:37.701Z,0.70
2023-05-07T15:04:05.956Z,0.57
2023-05-07T15:06:34.411Z,0.63
2023-05-07T15:09:01.631Z,0.60
2023-05-07T15:11:28.883Z,0.73
2023-05-07T15:13:56.139Z,0.63
2023-05-07T15:16:23.546Z,0.75
2023-05-07T15:18:50.806Z,1.10
2023-05-07T15:21:18.108Z,1.30
2023-05-07T15:23:45.581Z,0.90
2023-05-07T15:26:12.821Z,0.80
2023-05-07T15:28:40.653Z,0.90
2023-05-07T15:31:08.208Z,1.17
2023-05-07T15:33:35.417Z,2.22
2023-05-07T15:36:04.212Z,1.38
2023-05-07T15:38:31.691Z,1.90
2023-05-07T15:40:58.907Z,6.22
2023-05-07T15:43:26.438Z,8.38
2023-05-07T15:45:54.452Z,9.45
2023-05-07T15:48:21.770Z,9.07
2023-05-07T15:50:49.192Z,7.60
2023-05-07T15:53:16.552Z,5.57
2023-05-07T15:55:44.452Z,5.70
2023-05-07T15:58:12.269Z,6.20
2023-05-07T16:00:41.320Z,13.25
2023-05-07T16:03:08.935Z,10.30
2023-05-07T16:05:36.439Z,12.45
2023-05-07T16:08:04.201Z,10.65
2023-05-07T16:10:31.770Z,19.48
2023-05-07T16:12:59.119Z,17.05
2023-05-07T16:15:26.449Z,26.75
2023-05-07T16:17:58.043Z,14.95
2023-05-07T16:20:32.113Z,8.25
2023-05-07T16:22:59.516Z,5.40
2023-05-07T16:25:26.780Z,5.03
2023-05-07T16:27:54.919Z,3.95
2023-05-07T16:30:22.170Z,2.13
2023-05-07T16:32:49.502Z,2.10
2023-05-07T16:35:16.900Z,1.23
2023-05-07T16:37:44.306Z,1.00
2023-05-07T16:42:39.941Z,1.30
2023-05-07T16:45:07.504Z,1.50
2023-05-07T16:47:34.779Z,1.40
2023-05-07T16:50:05.483Z,2.20
2023-05-07T16:52:33.077Z,1.33
2023-05-07T16:55:01.507Z,2.45
2023-05-07T16:57:30.186Z,1.77
2023-05-07T16:59:59.065Z,1.10
2023-05-07T17:02:26.403Z,1.40
2023-05-07T17:04:53.738Z,1.02
2023-05-07T17:07:21.023Z,1.23
2023-05-07T17:09:48.272Z,1.02
2023-05-07T17:12:15.523Z,1.08
2023-05-07T17:14:42.965Z,1.00
2023-05-07T17:17:10.217Z,0.75
2023-05-07T17:19:40.084Z,0.80
2023-05-07T17:22:07.489Z,0.80
2023-05-07T17:24:34.690Z,0.80
2023-05-07T17:27:02.056Z,1.05
2023-05-07T17:29:30.925Z,0.80
2023-05-07T17:31:58.200Z,0.80
2023-05-07T17:34:25.550Z,0.85
2023-05-07T17:36:52.875Z,1.77
2023-05-07T17:39:20.152Z,0.52
2023-05-07T17:41:47.388Z,0.80
2023-05-07T17:44:14.759Z,0.45
2023-05-07T17:46:42.052Z,0.50
2023-05-07T17:49:09.278Z,0.85
2023-05-07T17:51:52.687Z,0.43
2023-05-07T17:54:21.761Z,0.40
2023-05-07T17:56:49.068Z,0.32
2023-05-07T17:59:16.352Z,0.40
2023-05-07T18:01:44.370Z,0.40
2023-05-07T18:04:11.787Z,0.45
2023-05-07T18:06:39.745Z,0.40
2023-05-07T18:09:07.158Z,0.35
2023-05-07T18:11:34.402Z,0.57
2023-05-07T18:14:02.096Z,0.30
2023-05-07T18:16:29.379Z,0.40
2023-05-07T18:18:56.698Z,0.52
2023-05-07T18:21:24.096Z,0.50
2023-05-07T18:23:51.676Z,0.30
2023-05-07T18:26:19.005Z,0.43
2023-05-07T18:28:46.644Z,0.32
2023-05-07T18:31:13.948Z,0.30
2023-05-07T18:33:41.162Z,0.30
2023-05-07T18:36:08.548Z,0.30
2023-05-07T18:38:35.823Z,0.30
2023-05-07T18:41:06.212Z,0.30
2023-05-07T18:43:34.028Z,0.20
2023-05-07T18:46:01.872Z,0.32
2023-05-07T18:48:29.285Z,0.32
2023-05-07T18:50:57.054Z,0.30
2023-05-07T18:53:24.588Z,0.28
2023-05-07T18:55:52.367Z,0.30
2023-05-07T18:58:20.197Z,0.13
2023-05-07T19:00:51.259Z,0.30
2023-05-07T19:03:18.632Z,0.30
2023-05-07T19:05:46.524Z,0.28
2023-05-07T19:08:14.091Z,0.32
2023-05-07T19:10:41.441Z,0.40
2023-05-07T19:13:08.755Z,0.45
2023-05-07T19:15:36.064Z,0.50
2023-05-07T19:18:03.530Z,0.38
2023-05-07T19:20:30.869Z,0.35
2023-05-07T19:22:58.369Z,0.40
2023-05-07T19:25:25.662Z,0.40
2023-05-07T19:27:52.992Z,0.40
2023-05-07T19:30:20.518Z,0.45
2023-05-07T19:32:47.954Z,0.47
2023-05-07T19:35:15.891Z,0.35
2023-05-07T19:37:43.258Z,0.30
2023-05-07T19:40:10.864Z,0.40
2023-05-07T19:42:38.197Z,0.30
2023-05-07T19:45:05.868Z,0.30
2023-05-07T19:47:33.164Z,0.30
2023-05-07T19:50:00.437Z,0.35
2023-05-07T19:52:27.833Z,0.32
2023-05-07T19:54:55.068Z,0.30
2023-05-07T19:57:22.300Z,0.68
2023-05-07T19:59:49.581Z,0.40
2023-05-07T20:02:16.870Z,0.30
2023-05-07T20:04:44.176Z,0.40
2023-05-07T20:07:11.493Z,0.20
2023-05-07T20:09:38.760Z,0.30
2023-05-07T20:12:06.768Z,0.35
2023-05-07T20:14:34.382Z,0.60
2023-05-07T20:17:01.629Z,0.20
2023-05-07T20:19:28.980Z,0.28
2023-05-07T20:21:56.922Z,0.40
2023-05-07T20:24:24.483Z,0.30
2023-05-07T20:26:51.727Z,0.30
2023-05-07T20:29:18.986Z,0.63
2023-05-07T20:31:46.583Z,0.40
2023-05-07T20:34:13.915Z,0.40
2023-05-07T20:36:41.274Z,0.40
2023-05-07T20:39:09.510Z,0.30
2023-05-07T20:41:36.951Z,0.38
2023-05-07T20:44:04.513Z,0.30
2023-05-07T20:46:31.849Z,0.30
2023-05-07T20:48:59.230Z,0.38
2023-05-07T20:51:27.267Z,0.25
2023-05-07T20:53:54.462Z,0.35
2023-05-07T20:56:22.352Z,0.50
2023-05-07T20:58:49.709Z,0.40
2023-05-07T21:01:17.378Z,0.30
2023-05-07T21:03:44.763Z,0.30
2023-05-07T21:06:12.458Z,0.50
2023-05-07T21:08:39.691Z,0.40
2023-05-07T21:11:07.976Z,0.30
2023-05-07T21:13:35.244Z,0.25
2023-05-07T21:16:02.456Z,0.50
2023-05-07T21:18:30.838Z,0.68
2023-05-07T21:20:58.357Z,0.60
2023-05-07T21:23:25.600Z,0.60
2023-05-07T21:25:52.964Z,0.40
2023-05-07T21:28:20.296Z,0.30
2023-05-07T21:30:47.516Z,0.50
2023-05-07T21:33:14.811Z,0.57
2023-05-07T21:35:42.067Z,0.50
2023-05-07T21:38:09.352Z,0.60
2023-05-07T21:40:37.640Z,0.50
2023-05-07T21:43:04.984Z,0.50
2023-05-07T21:45:32.245Z,0.40
2023-05-07T21:47:59.624Z,0.95
2023-05-07T21:50:27.030Z,0.40
2023-05-07T21:52:54.244Z,0.40
2023-05-07T21:55:21.558Z,0.32
2023-05-07T21:58:01.351Z,0.45
2023-05-07T22:00:31.924Z,0.40
2023-05-07T22:02:59.246Z,0.22
2023-05-07T22:05:26.544Z,0.40
2023-05-07T22:07:53.761Z,0.65
2023-05-07T22:10:23.027Z,0.50
2023-05-07T22:12:50.731Z,0.55
2023-05-07T22:15:18.225Z,0.40
2023-05-07T22:17:45.730Z,0.40
2023-05-07T22:20:13.264Z,0.38
2023-05-07T22:22:48.420Z,0.40
2023-05-07T22:25:17.567Z,0.38
2023-05-07T22:27:45.352Z,0.47
2023-05-07T22:30:13.095Z,0.85
2023-05-07T22:32:42.420Z,0.30
2023-05-07T22:35:09.974Z,0.40
2023-05-07T22:37:37.366Z,0.45
2023-05-07T22:40:05.422Z,0.50
2023-05-07T22:42:32.623Z,0.35
2023-05-07T22:44:59.919Z,0.60
2023-05-07T22:47:30.826Z,0.50
2023-05-07T22:49:58.231Z,0.60
2023-05-07T22:52:25.629Z,0.60
2023-05-07T22:54:52.884Z,0.65
2023-05-07T22:57:20.153Z,0.80
2023-05-07T22:59:47.486Z,0.77
2023-05-07T23:02:14.817Z,1.33
2023-05-07T23:04:42.064Z,0.90
2023-05-07T23:07:09.350Z,0.95
2023-05-07T23:09:36.841Z,0.60
2023-05-07T23:12:04.786Z,0.70
2023-05-07T23:14:32.415Z,0.70
2023-05-07T23:16:59.686Z,0.70
2023-05-07T23:19:27.058Z,0.60
2023-05-07T23:21:54.344Z,1.48
2023-05-07T23:24:21.546Z,0.52
2023-05-07T23:26:48.738Z,0.60
2023-05-07T23:29:15.985Z,0.50
2023-05-07T23:31:43.334Z,0.50
2023-05-07T23:34:10.517Z,0.50
2023-05-07T23:36:37.763Z,0.52
2023-05-07T23:39:04.960Z,0.55
2023-05-07T23:41:32.379Z,0.52
2023-05-07T23:43:59.640Z,0.40
2023-05-07T23:46:27.052Z,0.43
2023-05-07T23:48:54.307Z,0.55
2023-05-07T23:51:21.630Z,0.50
2023-05-07T23:53:48.878Z,0.57
2023-05-07T23:56:16.446Z,0.52
2023-05-07T23:58:43.708Z,0.50
